sensor_id;sensor_type;location;lat;lon;timestamp;pressure;altitude;pressure_sealevel;temperature;humidity
58955;BME280;45815;52.334;5.024;2023-04-30T00:00:00;102425.53;;;10.26;100.00
58955;BME280;45815;52.334;5.024;2023-04-30T00:02:26;102422.84;;;10.24;100.00
58955;BME280;45815;52.334;5.024;2023-04-30T00:04:52;102419.09;;;10.19;100.00
58955;BME280;45815;52.334;5.024;2023-04-30T00:07:17;102420.63;;;10.14;100.00
58955;BME280;45815;52.334;5.024;2023-04-30T00:09:42;102424.91;;;10.12;100.00
58955;BME280;45815;52.334;5.024;2023-04-30T00:12:08;102424.75;;;10.09;100.00
58955;BME280;45815;52.334;5.024;2023-04-30T00:14:33;102425.56;;;10.08;100.00
58955;BME280;45815;52.334;5.024;2023-04-30T00:16:59;102415.00;;;10.06;100.00
58955;BME280;45815;52.334;5.024;2023-04-30T00:19:24;102422.97;;;10.08;100.00
58955;BME280;45815;52.334;5.024;2023-04-30T00:21:50;102419.44;;;10.07;100.00
58955;BME280;45815;52.334;5.024;2023-04-30T00:24:15;102422.13;;;10.09;100.00
58955;BME280;45815;52.334;5.024;2023-04-30T00:26:40;102425.44;;;10.05;100.00
58955;BME280;45815;52.334;5.024;2023-04-30T00:29:08;102419.28;;;10.04;100.00
58955;BME280;45815;52.334;5.024;2023-04-30T00:31:33;102421.97;;;10.06;100.00
58955;BME280;45815;52.334;5.024;2023-04-30T00:33:59;102424.53;;;10.04;100.00
58955;BME280;45815;52.334;5.024;2023-04-30T00:36:24;102425.28;;;10.02;100.00
58955;BME280;45815;52.334;5.024;2023-04-30T00:38:49;102427.09;;;10.03;100.00
58955;BME280;45815;52.334;5.024;2023-04-30T00:41:15;102427.09;;;10.03;100.00
58955;BME280;45815;52.334;5.024;2023-04-30T00:43:40;102417.06;;;9.94;100.00
58955;BME280;45815;52.334;5.024;2023-04-30T00:46:06;102434.66;;;9.97;100.00
58955;BME280;45815;52.334;5.024;2023-04-30T00:48:32;102438.94;;;9.94;100.00
58955;BME280;45815;52.334;5.024;2023-04-30T00:50:58;102435.34;;;9.92;100.00
58955;BME280;45815;52.334;5.024;2023-04-30T00:53:23;102435.28;;;9.91;100.00
58955;BME280;45815;52.334;5.024;2023-04-30T00:55:49;102435.06;;;9.86;100.00
58955;BME280;45815;52.334;5.024;2023-04-30T00:58:15;102435.97;;;9.87;100.00
58955;BME280;45815;52.334;5.024;2023-04-30T01:00:41;102434.19;;;9.86;100.00
58955;BME280;45815;52.334;5.024;2023-04-30T01:03:12;102427.06;;;9.83;100.00
58955;BME280;45815;52.334;5.024;2023-04-30T01:05:37;102425.16;;;9.81;100.00
58955;BME280;45815;52.334;5.024;2023-04-30T01:08:03;102424.94;;;9.76;100.00
58955;BME280;45815;52.334;5.024;2023-04-30T01:10:32;102428.06;;;9.67;100.00
58955;BME280;45815;52.334;5.024;2023-04-30T01:13:16;102428.63;;;9.62;100.00
58955;BME280;45815;52.334;5.024;2023-04-30T01:15:53;102428.63;;;9.62;100.00
58955;BME280;45815;52.334;5.024;2023-04-30T01:18:31;102430.88;;;9.54;100.00
58955;BME280;45815;52.334;5.024;2023-04-30T01:21:03;102437.88;;;9.54;100.00
58955;BME280;45815;52.334;5.024;2023-04-30T01:28:35;102431.19;;;9.42;100.00
58955;BME280;45815;52.334;5.024;2023-04-30T01:31:01;102429.19;;;9.37;100.00
58955;BME280;45815;52.334;5.024;2023-04-30T01:33:26;102435.16;;;9.34;100.00
58955;BME280;45815;52.334;5.024;2023-04-30T01:41:19;102440.59;;;9.21;100.00
58955;BME280;45815;52.334;5.024;2023-04-30T01:44:16;102440.72;;;9.06;100.00
58955;BME280;45815;52.334;5.024;2023-04-30T01:47:05;102435.31;;;9.03;100.00
58955;BME280;45815;52.334;5.024;2023-04-30T01:52:17;102450.38;;;9.07;100.00
58955;BME280;45815;52.334;5.024;2023-04-30T01:54:58;102441.56;;;9.05;100.00
58955;BME280;45815;52.334;5.024;2023-04-30T01:57:32;102449.03;;;8.97;100.00
58955;BME280;45815;52.334;5.024;2023-04-30T01:59:58;102451.66;;;8.97;100.00
58955;BME280;45815;52.334;5.024;2023-04-30T02:02:24;102451.47;;;8.94;100.00
58955;BME280;45815;52.334;5.024;2023-04-30T02:04:50;102453.13;;;8.92;100.00
58955;BME280;45815;52.334;5.024;2023-04-30T02:07:24;102448.53;;;8.88;100.00
58955;BME280;45815;52.334;5.024;2023-04-30T02:09:53;102451.03;;;8.85;100.00
58955;BME280;45815;52.334;5.024;2023-04-30T02:12:19;102446.50;;;8.82;100.00
58955;BME280;45815;52.334;5.024;2023-04-30T02:14:44;102449.06;;;8.81;100.00
58955;BME280;45815;52.334;5.024;2023-04-30T02:17:09;102449.84;;;8.80;100.00
58955;BME280;45815;52.334;5.024;2023-04-30T02:19:35;102449.47;;;8.72;100.00
58955;BME280;45815;52.334;5.024;2023-04-30T02:22:00;102452.91;;;8.71;100.00
58955;BME280;45815;52.334;5.024;2023-04-30T02:24:26;102445.81;;;8.69;100.00
58955;BME280;45815;52.334;5.024;2023-04-30T02:26:51;102448.41;;;8.69;100.00
58955;BME280;45815;52.334;5.024;2023-04-30T02:29:16;102443.00;;;8.65;100.00
58955;BME280;45815;52.334;5.024;2023-04-30T02:31:42;102449.06;;;8.64;100.00
58955;BME280;45815;52.334;5.024;2023-04-30T02:34:09;102442.84;;;8.62;100.00
58955;BME280;45815;52.334;5.024;2023-04-30T02:36:35;102441.72;;;8.57;100.00
58955;BME280;45815;52.334;5.024;2023-04-30T02:39:01;102441.63;;;8.56;100.00
58955;BME280;45815;52.334;5.024;2023-04-30T02:41:26;102436.38;;;8.56;100.00
58955;BME280;45815;52.334;5.024;2023-04-30T02:43:51;102448.44;;;8.52;100.00
58955;BME280;45815;52.334;5.024;2023-04-30T02:46:17;102443.84;;;8.48;100.00
58955;BME280;45815;52.334;5.024;2023-04-30T02:48:43;102443.66;;;8.45;100.00
58955;BME280;45815;52.334;5.024;2023-04-30T02:51:08;102445.31;;;8.43;100.00
58955;BME280;45815;52.334;5.024;2023-04-30T02:53:34;102436.53;;;8.42;100.00
58955;BME280;45815;52.334;5.024;2023-04-30T02:55:59;102436.47;;;8.41;100.00
58955;BME280;45815;52.334;5.024;2023-04-30T02:58:25;102439.72;;;8.37;100.00
58955;BME280;45815;52.334;5.024;2023-04-30T03:00:50;102437.84;;;8.34;100.00
58955;BME280;45815;52.334;5.024;2023-04-30T03:03:16;102432.50;;;8.33;100.00
58955;BME280;45815;52.334;5.024;2023-04-30T03:05:42;102435.84;;;8.30;100.00
58955;BME280;45815;52.334;5.024;2023-04-30T03:08:07;102427.91;;;8.29;100.00
58955;BME280;45815;52.334;5.024;2023-04-30T03:10:33;102426.03;;;8.26;100.00
58955;BME280;45815;52.334;5.024;2023-04-30T03:12:58;102428.75;;;8.28;100.00
58955;BME280;45815;52.334;5.024;2023-04-30T03:15:24;102432.19;;;8.27;100.00
58955;BME280;45815;52.334;5.024;2023-04-30T03:17:49;102432.00;;;8.23;100.00
58955;BME280;45815;52.334;5.024;2023-04-30T03:20:14;102433.72;;;8.23;100.00
58955;BME280;45815;52.334;5.024;2023-04-30T03:22:40;102431.84;;;8.20;100.00
58955;BME280;45815;52.334;5.024;2023-04-30T03:25:07;102437.81;;;8.18;100.00
58955;BME280;45815;52.334;5.024;2023-04-30T03:27:33;102429.81;;;8.15;100.00
58955;BME280;45815;52.334;5.024;2023-04-30T03:29:58;102433.13;;;8.12;100.00
58955;BME280;45815;52.334;5.024;2023-04-30T03:32:23;102437.31;;;8.09;100.00
58955;BME280;45815;52.334;5.024;2023-04-30T03:34:49;102432.00;;;8.07;100.00
58955;BME280;45815;52.334;5.024;2023-04-30T03:37:14;102434.59;;;8.07;100.00
58955;BME280;45815;52.334;5.024;2023-04-30T03:39:40;102437.88;;;8.03;100.00
58955;BME280;45815;52.334;5.024;2023-04-30T03:42:05;102435.28;;;8.03;100.00
58955;BME280;45815;52.334;5.024;2023-04-30T03:44:31;102430.94;;;8.03;100.00
58955;BME280;45815;52.334;5.024;2023-04-30T03:46:56;102427.25;;;8.00;100.00
58955;BME280;45815;52.334;5.024;2023-04-30T03:49:22;102413.19;;;7.98;100.00
58955;BME280;45815;52.334;5.024;2023-04-30T03:51:47;102417.50;;;7.97;100.00
58955;BME280;45815;52.334;5.024;2023-04-30T03:54:12;102402.56;;;7.95;100.00
58955;BME280;45815;52.334;5.024;2023-04-30T03:56:38;102404.19;;;7.93;100.00
58955;BME280;45815;52.334;5.024;2023-04-30T03:59:04;102402.41;;;7.92;100.00
58955;BME280;45815;52.334;5.024;2023-04-30T04:01:31;102405.66;;;7.88;100.00
58955;BME280;45815;52.334;5.024;2023-04-30T04:03:56;102404.66;;;7.86;100.00
58955;BME280;45815;52.334;5.024;2023-04-30T04:06:22;102408.13;;;7.85;100.00
58955;BME280;45815;52.334;5.024;2023-04-30T04:08:48;102409.81;;;7.84;100.00
58955;BME280;45815;52.334;5.024;2023-04-30T04:11:13;102403.53;;;7.80;100.00
58955;BME280;45815;52.334;5.024;2023-04-30T04:13:39;102405.97;;;7.77;100.00
58955;BME280;45815;52.334;5.024;2023-04-30T04:16:05;102406.63;;;7.73;100.00
58955;BME280;45815;52.334;5.024;2023-04-30T04:18:33;102410.13;;;7.74;100.00
58955;BME280;45815;52.334;5.024;2023-04-30T04:20:58;102410.75;;;7.70;100.00
58955;BME280;45815;52.334;5.024;2023-04-30T04:23:25;102411.47;;;7.67;100.00
58955;BME280;45815;52.334;5.024;2023-04-30T04:25:51;102417.81;;;7.71;100.00
58955;BME280;45815;52.334;5.024;2023-04-30T04:28:16;102404.28;;;7.63;100.00
58955;BME280;45815;52.334;5.024;2023-04-30T04:30:42;102419.31;;;7.67;100.00
58955;BME280;45815;52.334;5.024;2023-04-30T04:33:07;102414.03;;;7.66;100.00
58955;BME280;45815;52.334;5.024;2023-04-30T04:35:33;102413.22;;;7.67;100.00
58955;BME280;45815;52.334;5.024;2023-04-30T04:37:59;102412.31;;;7.66;100.00
58955;BME280;45815;52.334;5.024;2023-04-30T04:40:25;102418.53;;;7.68;100.00
58955;BME280;45815;52.334;5.024;2023-04-30T04:42:51;102415.00;;;7.68;100.00
58955;BME280;45815;52.334;5.024;2023-04-30T04:45:16;102410.44;;;7.64;100.00
58955;BME280;45815;52.334;5.024;2023-04-30T04:47:42;102425.63;;;7.71;100.00
58955;BME280;45815;52.334;5.024;2023-04-30T04:50:07;102421.31;;;7.71;100.00
58955;BME280;45815;52.334;5.024;2023-04-30T04:52:33;102425.81;;;7.74;100.00
58955;BME280;45815;52.334;5.024;2023-04-30T04:54:58;102438.13;;;7.76;100.00
58955;BME280;45815;52.334;5.024;2023-04-30T04:57:24;102435.06;;;7.83;100.00
58955;BME280;45815;52.334;5.024;2023-04-30T04:59:49;102437.03;;;7.88;100.00
58955;BME280;45815;52.334;5.024;2023-04-30T05:02:15;102428.84;;;7.81;100.00
58955;BME280;45815;52.334;5.024;2023-04-30T05:04:40;102433.84;;;7.93;100.00
58955;BME280;45815;52.334;5.024;2023-04-30T05:07:06;102438.59;;;8.00;100.00
58955;BME280;45815;52.334;5.024;2023-04-30T05:09:32;102445.91;;;8.06;100.00
58955;BME280;45815;52.334;5.024;2023-04-30T05:11:57;102443.13;;;8.03;100.00
58955;BME280;45815;52.334;5.024;2023-04-30T05:14:23;102451.75;;;8.02;100.00
58955;BME280;45815;52.334;5.024;2023-04-30T05:16:48;102448.16;;;8.00;100.00
58955;BME280;45815;52.334;5.024;2023-04-30T05:19:14;102449.97;;;8.01;100.00
58955;BME280;45815;52.334;5.024;2023-04-30T05:21:39;102447.38;;;8.01;100.00
58955;BME280;45815;52.334;5.024;2023-04-30T05:24:05;102456.41;;;8.08;100.00
58955;BME280;45815;52.334;5.024;2023-04-30T05:26:30;102455.97;;;8.15;100.00
58955;BME280;45815;52.334;5.024;2023-04-30T05:28:56;102450.81;;;8.16;100.00
58955;BME280;45815;52.334;5.024;2023-04-30T05:31:21;102452.88;;;8.22;100.00
58955;BME280;45815;52.334;5.024;2023-04-30T05:33:47;102458.16;;;8.23;100.00
58955;BME280;45815;52.334;5.024;2023-04-30T05:36:13;102435.84;;;8.14;100.00
58955;BME280;45815;52.334;5.024;2023-04-30T05:38:38;102457.44;;;8.26;100.00
58955;BME280;45815;52.334;5.024;2023-04-30T05:41:04;102461.13;;;8.30;100.00
58955;BME280;45815;52.334;5.024;2023-04-30T05:43:29;102465.72;;;8.34;100.00
58955;BME280;45815;52.334;5.024;2023-04-30T05:45:55;102465.72;;;8.34;100.00
58955;BME280;45815;52.334;5.024;2023-04-30T05:48:20;102461.94;;;8.29;100.00
58955;BME280;45815;52.334;5.024;2023-04-30T05:50:45;102469.47;;;8.39;100.00
58955;BME280;45815;52.334;5.024;2023-04-30T05:53:12;102473.38;;;8.45;100.00
58955;BME280;45815;52.334;5.024;2023-04-30T05:55:37;102476.28;;;8.52;100.00
58955;BME280;45815;52.334;5.024;2023-04-30T05:58:02;102468.69;;;8.56;100.00
58955;BME280;45815;52.334;5.024;2023-04-30T06:00:28;102478.59;;;8.62;100.00
58955;BME280;45815;52.334;5.024;2023-04-30T06:02:53;102478.84;;;8.66;100.00
58955;BME280;45815;52.334;5.024;2023-04-30T06:05:19;102477.22;;;8.69;100.00
58955;BME280;45815;52.334;5.024;2023-04-30T06:07:44;102470.50;;;8.74;100.00
58955;BME280;45815;52.334;5.024;2023-04-30T06:10:09;102473.41;;;8.80;100.00
58955;BME280;45815;52.334;5.024;2023-04-30T06:12:36;102475.47;;;8.85;100.00
58955;BME280;45815;52.334;5.024;2023-04-30T06:15:02;102476.75;;;8.94;100.00
58955;BME280;45815;52.334;5.024;2023-04-30T06:17:28;102473.06;;;9.06;100.00
58955;BME280;45815;52.334;5.024;2023-04-30T06:19:53;102473.53;;;9.16;100.00
58955;BME280;45815;52.334;5.024;2023-04-30T06:22:19;102475.47;;;9.20;100.00
58955;BME280;45815;52.334;5.024;2023-04-30T06:24:44;102470.41;;;9.23;100.00
58955;BME280;45815;52.334;5.024;2023-04-30T06:27:09;102479.53;;;9.31;100.00
58955;BME280;45815;52.334;5.024;2023-04-30T06:29:35;102486.09;;;9.39;100.00
58955;BME280;45815;52.334;5.024;2023-04-30T06:32:00;102483.75;;;9.45;100.00
58955;BME280;45815;52.334;5.024;2023-04-30T06:34:26;102489.31;;;9.51;100.00
58955;BME280;45815;52.334;5.024;2023-04-30T06:36:51;102485.84;;;9.52;100.00
58955;BME280;45815;52.334;5.024;2023-04-30T06:39:16;102484.53;;;9.61;100.00
58955;BME280;45815;52.334;5.024;2023-04-30T06:41:42;102488.25;;;9.66;100.00
58955;BME280;45815;52.334;5.024;2023-04-30T06:44:08;102480.72;;;9.72;100.00
58955;BME280;45815;52.334;5.024;2023-04-30T06:46:34;102485.44;;;9.79;100.00
58955;BME280;45815;52.334;5.024;2023-04-30T06:48:59;102484.81;;;9.85;100.00
58955;BME280;45815;52.334;5.024;2023-04-30T06:51:25;102475.91;;;9.81;100.00
58955;BME280;45815;52.334;5.024;2023-04-30T06:53:51;102480.91;;;9.94;100.00
58955;BME280;45815;52.334;5.024;2023-04-30T06:56:16;102484.06;;;10.05;100.00
58955;BME280;45815;52.334;5.024;2023-04-30T06:58:41;102488.75;;;10.12;100.00
58955;BME280;45815;52.334;5.024;2023-04-30T07:01:07;102484.63;;;10.18;100.00
58955;BME280;45815;52.334;5.024;2023-04-30T07:03:33;102485.81;;;10.24;100.00
58955;BME280;45815;52.334;5.024;2023-04-30T07:05:59;102484.34;;;10.29;100.00
58955;BME280;45815;52.334;5.024;2023-04-30T07:08:24;102478.41;;;10.33;100.00
58955;BME280;45815;52.334;5.024;2023-04-30T07:10:49;102485.06;;;10.45;100.00
58955;BME280;45815;52.334;5.024;2023-04-30T07:13:15;102485.09;;;10.46;100.00
58955;BME280;45815;52.334;5.024;2023-04-30T07:15:41;102487.00;;;10.49;100.00
58955;BME280;45815;52.334;5.024;2023-04-30T07:18:06;102482.13;;;10.58;100.00
58955;BME280;45815;52.334;5.024;2023-04-30T07:20:32;102491.56;;;10.72;100.00
58955;BME280;45815;52.334;5.024;2023-04-30T07:22:58;102484.22;;;10.85;100.00
58955;BME280;45815;52.334;5.024;2023-04-30T07:25:23;102478.41;;;10.92;100.00
58955;BME280;45815;52.334;5.024;2023-04-30T07:27:50;102471.63;;;10.97;100.00
58955;BME280;45815;52.334;5.024;2023-04-30T07:30:17;102487.09;;;11.10;100.00
58955;BME280;45815;52.334;5.024;2023-04-30T07:32:42;102482.09;;;11.16;100.00
58955;BME280;45815;52.334;5.024;2023-04-30T07:35:08;102484.91;;;11.21;100.00
58955;BME280;45815;52.334;5.024;2023-04-30T07:37:33;102484.91;;;11.21;100.00
58955;BME280;45815;52.334;5.024;2023-04-30T07:39:59;102478.97;;;11.25;100.00
58955;BME280;45815;52.334;5.024;2023-04-30T07:42:25;102482.56;;;11.27;100.00
58955;BME280;45815;52.334;5.024;2023-04-30T07:44:51;102478.38;;;11.32;100.00
58955;BME280;45815;52.334;5.024;2023-04-30T07:47:17;102471.66;;;11.39;100.00
58955;BME280;45815;52.334;5.024;2023-04-30T07:49:45;102476.34;;;11.46;100.00
58955;BME280;45815;52.334;5.024;2023-04-30T07:52:10;102480.31;;;11.57;100.00
58955;BME280;45815;52.334;5.024;2023-04-30T07:54:36;102478.19;;;11.70;100.00
58955;BME280;45815;52.334;5.024;2023-04-30T07:57:03;102475.72;;;11.74;100.00
58955;BME280;45815;52.334;5.024;2023-04-30T07:59:29;102476.88;;;11.81;100.00
58955;BME280;45815;52.334;5.024;2023-04-30T08:01:55;102479.22;;;11.94;100.00
58955;BME280;45815;52.334;5.024;2023-04-30T08:04:20;102478.53;;;12.00;100.00
58955;BME280;45815;52.334;5.024;2023-04-30T08:06:46;102483.13;;;12.06;100.00
58955;BME280;45815;52.334;5.024;2023-04-30T08:09:11;102485.53;;;12.22;100.00
58955;BME280;45815;52.334;5.024;2023-04-30T08:11:36;102480.97;;;12.40;100.00
58955;BME280;45815;52.334;5.024;2023-04-30T08:14:02;102469.22;;;12.55;100.00
58955;BME280;45815;52.334;5.024;2023-04-30T08:16:27;102465.47;;;12.72;100.00
58955;BME280;45815;52.334;5.024;2023-04-30T08:18:53;102472.03;;;12.83;100.00
58955;BME280;45815;52.334;5.024;2023-04-30T08:21:18;102470.06;;;13.02;100.00
58955;BME280;45815;52.334;5.024;2023-04-30T08:23:44;102469.75;;;13.18;100.00
58955;BME280;45815;52.334;5.024;2023-04-30T08:26:10;102470.28;;;13.34;100.00
58955;BME280;45815;52.334;5.024;2023-04-30T08:28:35;102467.31;;;13.50;100.00
58955;BME280;45815;52.334;5.024;2023-04-30T08:31:00;102474.22;;;13.72;100.00
58955;BME280;45815;52.334;5.024;2023-04-30T08:33:26;102467.13;;;13.98;100.00
58955;BME280;45815;52.334;5.024;2023-04-30T08:35:51;102474.06;;;14.25;100.00
58955;BME280;45815;52.334;5.024;2023-04-30T08:38:18;102465.69;;;14.40;100.00
58955;BME280;45815;52.334;5.024;2023-04-30T08:40:48;102469.03;;;14.63;100.00
58955;BME280;45815;52.334;5.024;2023-04-30T08:43:17;102472.28;;;14.84;100.00
58955;BME280;45815;52.334;5.024;2023-04-30T08:45:43;102459.69;;;15.07;100.00
58955;BME280;45815;52.334;5.024;2023-04-30T08:48:10;102470.09;;;15.34;100.00
58955;BME280;45815;52.334;5.024;2023-04-30T08:50:38;102467.94;;;15.54;100.00
58955;BME280;45815;52.334;5.024;2023-04-30T08:53:04;102468.63;;;15.82;100.00
58955;BME280;45815;52.334;5.024;2023-04-30T08:55:32;102473.53;;;16.03;100.00
58955;BME280;45815;52.334;5.024;2023-04-30T08:57:58;102471.16;;;16.15;100.00
58955;BME280;45815;52.334;5.024;2023-04-30T09:00:24;102470.63;;;16.32;100.00
58955;BME280;45815;52.334;5.024;2023-04-30T09:02:51;102447.84;;;16.40;100.00
58955;BME280;45815;52.334;5.024;2023-04-30T09:05:16;102458.13;;;16.68;100.00
58955;BME280;45815;52.334;5.024;2023-04-30T09:07:43;102466.34;;;16.81;100.00
58955;BME280;45815;52.334;5.024;2023-04-30T09:10:16;102464.06;;;16.98;100.00
58955;BME280;45815;52.334;5.024;2023-04-30T09:12:42;102461.78;;;17.19;100.00
58955;BME280;45815;52.334;5.024;2023-04-30T09:15:10;102461.22;;;17.37;100.00
58955;BME280;45815;52.334;5.024;2023-04-30T09:17:36;102462.34;;;17.53;100.00
58955;BME280;45815;52.334;5.024;2023-04-30T09:20:10;102459.19;;;17.79;100.00
58955;BME280;45815;52.334;5.024;2023-04-30T09:22:37;102454.22;;;17.99;100.00
58955;BME280;45815;52.334;5.024;2023-04-30T09:25:04;102453.44;;;18.06;100.00
58955;BME280;45815;52.334;5.024;2023-04-30T09:27:29;102457.16;;;18.20;100.00
58955;BME280;45815;52.334;5.024;2023-04-30T09:29:55;102450.25;;;18.34;100.00
58955;BME280;45815;52.334;5.024;2023-04-30T09:32:20;102434.19;;;18.25;100.00
58955;BME280;45815;52.334;5.024;2023-04-30T09:34:46;102452.09;;;18.40;100.00
58955;BME280;45815;52.334;5.024;2023-04-30T09:37:12;102439.88;;;18.54;100.00
58955;BME280;45815;52.334;5.024;2023-04-30T09:39:48;102431.91;;;18.56;100.00
58955;BME280;45815;52.334;5.024;2023-04-30T09:42:14;102431.25;;;18.75;100.00
58955;BME280;45815;52.334;5.024;2023-04-30T09:44:40;102433.22;;;18.92;100.00
58955;BME280;45815;52.334;5.024;2023-04-30T09:47:14;102434.25;;;19.08;100.00
58955;BME280;45815;52.334;5.024;2023-04-30T09:49:46;102430.75;;;19.12;100.00
58955;BME280;45815;52.334;5.024;2023-04-30T09:52:14;102427.28;;;19.22;100.00
58955;BME280;45815;52.334;5.024;2023-04-30T09:54:40;102425.66;;;19.39;100.00
58955;BME280;45815;52.334;5.024;2023-04-30T09:57:09;102422.19;;;19.48;100.00
58955;BME280;45815;52.334;5.024;2023-04-30T09:59:35;102424.91;;;19.57;100.00
58955;BME280;45815;52.334;5.024;2023-04-30T10:02:03;102420.44;;;19.53;100.00
58955;BME280;45815;52.334;5.024;2023-04-30T10:04:32;102415.13;;;19.56;100.00
58955;BME280;45815;52.334;5.024;2023-04-30T10:07:01;102420.56;;;19.69;100.00
58955;BME280;45815;52.334;5.024;2023-04-30T10:09:33;102418.00;;;19.84;100.00
58955;BME280;45815;52.334;5.024;2023-04-30T10:12:01;102419.84;;;19.97;99.52
58955;BME280;45815;52.334;5.024;2023-04-30T10:14:29;102423.44;;;20.02;98.05
58955;BME280;45815;52.334;5.024;2023-04-30T10:17:04;102411.94;;;20.11;97.63
58955;BME280;45815;52.334;5.024;2023-04-30T10:19:33;102411.06;;;20.20;96.55
58955;BME280;45815;52.334;5.024;2023-04-30T10:22:00;102412.03;;;20.33;96.00
58955;BME280;45815;52.334;5.024;2023-04-30T10:24:26;102411.13;;;20.41;95.31
58955;BME280;45815;52.334;5.024;2023-04-30T10:26:52;102405.84;;;20.48;98.37
58955;BME280;45815;52.334;5.024;2023-04-30T10:29:19;102406.72;;;20.47;97.96
58955;BME280;45815;52.334;5.024;2023-04-30T10:31:48;102401.41;;;20.47;97.24
58955;BME280;45815;52.334;5.024;2023-04-30T10:34:28;102404.16;;;20.65;97.21
58955;BME280;45815;52.334;5.024;2023-04-30T10:37:03;102405.97;;;20.81;98.27
58955;BME280;45815;52.334;5.024;2023-04-30T10:39:32;102403.28;;;20.84;99.46
58955;BME280;45815;52.334;5.024;2023-04-30T10:42:05;102407.75;;;20.98;93.45
58955;BME280;45815;52.334;5.024;2023-04-30T10:44:32;102392.59;;;20.83;97.10
58955;BME280;45815;52.334;5.024;2023-04-30T10:47:02;102406.84;;;20.86;94.80
58955;BME280;45815;52.334;5.024;2023-04-30T10:49:28;102397.94;;;20.95;95.39
58955;BME280;45815;52.334;5.024;2023-04-30T10:51:54;102388.16;;;21.11;93.64
58955;BME280;45815;52.334;5.024;2023-04-30T10:54:27;102395.31;;;21.21;91.45
58955;BME280;45815;52.334;5.024;2023-04-30T10:57:08;102390.84;;;21.20;88.04
58955;BME280;45815;52.334;5.024;2023-04-30T10:59:41;102385.47;;;21.33;88.15
58955;BME280;45815;52.334;5.024;2023-04-30T11:02:09;102387.28;;;21.43;89.84
58955;BME280;45815;52.334;5.024;2023-04-30T11:05:07;102382.84;;;21.48;86.83
58955;BME280;45815;52.334;5.024;2023-04-30T11:07:32;102392.59;;;21.60;88.51
58955;BME280;45815;52.334;5.024;2023-04-30T11:09:59;102387.22;;;21.67;89.23
58955;BME280;45815;52.334;5.024;2023-04-30T11:12:26;102379.22;;;21.80;90.00
58955;BME280;45815;52.334;5.024;2023-04-30T11:14:59;102375.59;;;21.84;87.21
58955;BME280;45815;52.334;5.024;2023-04-30T11:17:26;102380.03;;;21.86;87.67
58955;BME280;45815;52.334;5.024;2023-04-30T11:19:53;102375.56;;;21.93;88.12
58955;BME280;45815;52.334;5.024;2023-04-30T11:22:23;102370.22;;;21.99;88.20
58955;BME280;45815;52.334;5.024;2023-04-30T11:27:28;102363.06;;;22.00;84.22
58955;BME280;45815;52.334;5.024;2023-04-30T11:29:55;102355.94;;;22.06;87.80
58955;BME280;45815;52.334;5.024;2023-04-30T11:32:22;102355.00;;;22.07;86.28
58955;BME280;45815;52.334;5.024;2023-04-30T11:34:48;102348.78;;;22.05;86.11
58955;BME280;45815;52.334;5.024;2023-04-30T11:37:24;102338.16;;;21.96;82.37
58955;BME280;45815;52.334;5.024;2023-04-30T11:39:53;102338.06;;;22.21;86.15
58955;BME280;45815;52.334;5.024;2023-04-30T11:42:19;102340.66;;;22.28;85.27
58955;BME280;45815;52.334;5.024;2023-04-30T11:44:45;102346.94;;;22.29;86.31
58955;BME280;45815;52.334;5.024;2023-04-30T11:47:14;102334.47;;;22.23;85.36
58955;BME280;45815;52.334;5.024;2023-04-30T11:49:41;102327.28;;;22.34;86.04
58955;BME280;45815;52.334;5.024;2023-04-30T11:52:07;102330.78;;;22.44;84.08
58955;BME280;45815;52.334;5.024;2023-04-30T11:54:36;102335.19;;;22.51;82.15
58955;BME280;45815;52.334;5.024;2023-04-30T11:57:02;102322.66;;;22.60;81.80
58955;BME280;45815;52.334;5.024;2023-04-30T11:59:39;102330.63;;;22.66;79.57
58955;BME280;45815;52.334;5.024;2023-04-30T12:02:05;102323.34;;;22.83;82.10
58955;BME280;45815;52.334;5.024;2023-04-30T12:04:31;102325.16;;;22.81;83.78
58955;BME280;45815;52.334;5.024;2023-04-30T12:06:56;102320.66;;;22.88;83.65
58955;BME280;45815;52.334;5.024;2023-04-30T12:09:22;102319.69;;;22.93;82.67
58955;BME280;45815;52.334;5.024;2023-04-30T12:11:48;102316.22;;;22.85;82.48
58955;BME280;45815;52.334;5.024;2023-04-30T12:14:13;102312.69;;;22.79;83.84
58955;BME280;45815;52.334;5.024;2023-04-30T12:16:46;102312.66;;;22.83;82.17
58955;BME280;45815;52.334;5.024;2023-04-30T12:19:16;102316.13;;;22.94;84.17
58955;BME280;45815;52.334;5.024;2023-04-30T12:21:43;102312.56;;;22.92;81.68
58955;BME280;45815;52.334;5.024;2023-04-30T12:24:11;102303.69;;;22.84;80.20
58955;BME280;45815;52.334;5.024;2023-04-30T12:26:38;102304.59;;;22.86;79.28
58955;BME280;45815;52.334;5.024;2023-04-30T12:29:07;102300.09;;;22.88;79.11
58955;BME280;45815;52.334;5.024;2023-04-30T12:31:32;102297.34;;;22.97;79.80
58955;BME280;45815;52.334;5.024;2023-04-30T12:34:03;102292.97;;;22.87;81.83
58955;BME280;45815;52.334;5.024;2023-04-30T12:36:30;102295.50;;;23.09;80.92
58955;BME280;45815;52.334;5.024;2023-04-30T12:39:06;102292.72;;;23.16;77.57
58955;BME280;45815;52.334;5.024;2023-04-30T12:41:40;102290.19;;;23.01;73.21
58955;BME280;45815;52.334;5.024;2023-04-30T12:44:25;102289.31;;;23.01;76.04
58955;BME280;45815;52.334;5.024;2023-04-30T12:46:53;102289.09;;;23.22;75.79
58955;BME280;45815;52.334;5.024;2023-04-30T12:49:28;102281.69;;;23.46;79.81
58955;BME280;45815;52.334;5.024;2023-04-30T12:52:01;102285.09;;;23.60;79.21
58955;BME280;45815;52.334;5.024;2023-04-30T12:54:29;102279.75;;;23.60;76.95
58955;BME280;45815;52.334;5.024;2023-04-30T12:57:05;102282.31;;;23.66;76.20
58955;BME280;45815;52.334;5.024;2023-04-30T12:59:35;102267.84;;;23.81;73.80
58955;BME280;45815;52.334;5.024;2023-04-30T13:02:07;102272.34;;;23.80;73.15